Time;durP1;ratioP1;P1;durP2;ratioP2;P2;SDS_P1;SDS_P2;PMS_P1;PMS_P2;Temp;Humidity;BMP_temperature;BMP_pressure;BME280_temperature;BME280_humidity;BME280_pressure;Samples;Min_cycle;Max_cycle;Signal;HPM_P1;HPM_P2
2023/10/10 00:02:04;;;;;;;;;;;;;;;20.90;28.73;98079.34;5015363;28;909;-76
2023/10/10 00:04:32;;;;;;;;;;;;;;;20.80;29.18;98070.66;5015279;28;1103;-76
2023/10/10 00:06:58;;;;;;;;;;;;;;;20.73;29.05;98067.19;5015101;28;1042;-75
2023/10/10 00:09:26;;;;;;;;;;;;;;;20.76;28.97;98069.94;5015454;28;1013;-75
2023/10/10 00:11:53;;;;;;;;;;;;;;;20.79;29.31;98062.63;4998768;28;1343;-75
2023/10/10 00:14:19;;;;;;;;;;;;;;;20.86;29.08;98058.81;4998674;28;1178;-76
2023/10/10 00:16:47;;;;;;;;;;;;;;;20.88;28.99;98059.16;5014988;28;1902;-75
2023/10/10 00:19:28;;;;;;;;;;;;;;;20.84;28.93;98055.66;4998628;28;1118;-75
2023/10/10 00:21:54;;;;;;;;;;;;;;;20.61;29.49;98048.84;5015096;28;1036;-76
2023/10/10 00:24:21;;;;;;;;;;;;;;;20.79;29.15;98046.44;5022745;28;1275;-76
2023/10/10 00:26:47;;;;;;;;;;;;;;;20.89;29.11;98040.97;5038249;28;1348;-75
2023/10/10 00:29:13;;;;;;;;;;;;;;;20.66;29.27;98037.03;5014702;28;1369;-76
2023/10/10 00:31:38;;;;;;;;;;;;;;;20.86;28.94;98039.03;4998817;28;1101;-76
2023/10/10 00:34:07;;;;;;;;;;;;;;;20.74;29.31;98044.13;5014766;28;1208;-76
2023/10/10 00:36:35;;;;;;;;;;;;;;;20.79;28.94;98045.66;5014737;28;1963;-76
2023/10/10 00:39:24;;;;;;;;;;;;;;;20.74;28.92;98049.78;4998238;28;1373;-76
2023/10/10 00:44:17;;;;;;;;;;;;;;;21.09;28.50;98036.06;5013949;28;1300;-75
2023/10/10 00:46:47;;;;;;;;;;;;;;;20.70;29.02;98032.09;5014660;28;1244;-76
2023/10/10 00:49:17;;;;;;;;;;;;;;;20.63;29.14;98032.28;5014503;28;917;-75
2023/10/10 00:51:46;;;;;;;;;;;;;;;20.84;28.87;98035.84;5014368;28;974;-76
2023/10/10 00:56:52;;;;;;;;;;;;;;;20.71;28.96;98022.38;4990479;28;1910;-76
2023/10/10 00:59:18;;;;;;;;;;;;;;;20.67;29.01;98027.31;4977966;28;1275;-76
2023/10/10 01:01:45;;;;;;;;;;;;;;;20.67;29.36;98026.50;4994846;28;1000;-76
2023/10/10 01:04:12;;;;;;;;;;;;;;;20.88;29.13;98030.88;4978076;28;1355;-75
2023/10/10 01:06:39;;;;;;;;;;;;;;;20.88;28.99;98030.88;4995070;28;1019;-76
2023/10/10 01:09:20;;;;;;;;;;;;;;;20.63;29.37;98015.31;4994713;28;1332;-76
2023/10/10 01:11:49;;;;;;;;;;;;;;;20.61;29.15;98026.25;4992567;28;1242;-76
2023/10/10 01:14:18;;;;;;;;;;;;;;;20.47;29.36;98027.38;4994374;28;913;-76
2023/10/10 01:16:47;;;;;;;;;;;;;;;20.68;29.09;98028.94;4994628;28;1914;-75
2023/10/10 01:19:18;;;;;;;;;;;;;;;20.73;29.07;98025.56;5007315;28;1284;-75
2023/10/10 01:21:50;;;;;;;;;;;;;;;20.81;29.05;98020.53;4997896;28;920;-76
2023/10/10 01:24:17;;;;;;;;;;;;;;;20.95;28.95;98013.75;4997919;28;984;-75
2023/10/10 01:26:47;;;;;;;;;;;;;;;20.80;29.14;98019.75;4981683;28;992;-76
2023/10/10 01:29:18;;;;;;;;;;;;;;;20.66;29.22;98020.06;4997597;28;988;-76
2023/10/10 01:31:45;;;;;;;;;;;;;;;20.68;29.23;98014.78;4982452;28;1070;-76
2023/10/10 01:34:29;;;;;;;;;;;;;;;20.74;28.97;98015.84;4981576;28;1385;-75
2023/10/10 01:36:57;;;;;;;;;;;;;;;20.76;29.00;98021.84;5013943;28;1914;-76
2023/10/10 01:39:26;;;;;;;;;;;;;;;20.68;29.14;98026.09;4997477;28;976;-75
2023/10/10 01:41:52;;;;;;;;;;;;;;;20.60;29.14;98019.00;4981573;28;1045;-76
2023/10/10 01:44:23;;;;;;;;;;;;;;;20.60;29.31;98021.03;4981530;28;1194;-76
2023/10/10 01:46:51;;;;;;;;;;;;;;;20.64;29.49;98022.53;5013993;28;1190;-77
2023/10/10 01:49:26;;;;;;;;;;;;;;;20.57;29.63;98028.34;5019089;28;907;-76
2023/10/10 01:51:55;;;;;;;;;;;;;;;20.62;29.42;98030.66;5039932;28;893;-76
2023/10/10 01:54:41;;;;;;;;;;;;;;;20.63;29.50;98023.00;5038461;28;948;-77
2023/10/10 01:57:09;;;;;;;;;;;;;;;20.67;28.98;98032.97;5055518;28;1985;-76
2023/10/10 01:59:38;;;;;;;;;;;;;;;20.62;29.51;98030.66;5022003;28;1049;-76
2023/10/10 02:02:09;;;;;;;;;;;;;;;20.71;29.05;98033.69;5021660;28;1070;-76
2023/10/10 02:04:35;;;;;;;;;;;;;;;20.93;29.06;98033.97;5037794;28;1171;-76
2023/10/10 02:07:06;;;;;;;;;;;;;;;20.65;29.16;98029.78;5017059;28;1255;-76
2023/10/10 02:09:36;;;;;;;;;;;;;;;21.02;28.74;98041.88;5000976;28;1006;-75
2023/10/10 02:12:12;;;;;;;;;;;;;;;20.96;28.90;98040.81;4977895;28;1237;-76
2023/10/10 02:14:38;;;;;;;;;;;;;;;20.90;28.98;98039.75;4979018;28;947;-75
2023/10/10 02:17:19;;;;;;;;;;;;;;;21.02;28.54;98044.69;4965257;28;1981;-77
2023/10/10 02:19:53;;;;;;;;;;;;;;;21.11;28.54;98044.09;4981322;28;1261;-76
2023/10/10 02:22:23;;;;;;;;;;;;;;;20.73;29.24;98036.88;4982510;28;997;-76
2023/10/10 02:24:58;;;;;;;;;;;;;;;20.88;28.93;98039.38;4981987;28;1236;-76
2023/10/10 02:27:32;;;;;;;;;;;;;;;20.76;29.03;98036.00;4997681;28;1031;-77
2023/10/10 02:30:04;;;;;;;;;;;;;;;20.54;29.58;98026.41;4958250;29;1027;-76
2023/10/10 02:32:29;;;;;;;;;;;;;;;20.81;28.89;98026.19;4942142;29;992;-76
2023/10/10 02:35:16;;;;;;;;;;;;;;;20.98;28.94;98027.00;4958267;29;962;-75
2023/10/10 02:37:45;;;;;;;;;;;;;;;20.76;29.02;98024.69;4958564;29;973;-76
2023/10/10 02:40:15;;;;;;;;;;;;;;;20.87;29.09;98029.28;4958880;29;959;-76
2023/10/10 02:42:50;;;;;;;;;;;;;;;20.93;28.95;98028.31;4973761;28;1007;-76
2023/10/10 02:45:17;;;;;;;;;;;;;;;20.87;29.00;98026.47;5012947;28;1132;-76
2023/10/10 02:47:52;;;;;;;;;;;;;;;20.98;28.93;98024.19;5016217;28;1225;-76
2023/10/10 02:50:39;;;;;;;;;;;;;;;20.48;29.72;98019.69;4998474;28;1281;-76
2023/10/10 02:53:07;;;;;;;;;;;;;;;20.80;29.10;98014.09;4957134;29;1399;-76
2023/10/10 02:55:41;;;;;;;;;;;;;;;20.76;28.99;98019.03;4940133;29;1907;-75
2023/10/10 02:58:20;;;;;;;;;;;;;;;21.04;28.91;98019.63;4938625;29;1314;-76
2023/10/10 03:00:49;;;;;;;;;;;;;;;20.88;28.79;98019.56;4924347;28;1367;-76
2023/10/10 03:03:20;;;;;;;;;;;;;;;20.93;29.03;98016.22;4991276;28;1282;-76
2023/10/10 03:05:54;;;;;;;;;;;;;;;20.91;28.78;98013.06;4977170;28;1266;-76
2023/10/10 03:08:35;;;;;;;;;;;;;;;20.99;28.94;98020.13;4992466;28;1345;-75
2023/10/10 03:11:14;;;;;;;;;;;;;;;20.70;29.22;98015.13;4975316;28;1152;-75
2023/10/10 03:13:54;;;;;;;;;;;;;;;20.71;29.24;98027.25;4975568;28;1580;-76
2023/10/10 03:29:49;;;;;;;;;;;;;;;20.87;29.33;98026.47;4976677;28;1267;-76
2023/10/10 03:32:22;;;;;;;;;;;;;;;20.81;29.35;98031.84;4962556;28;1619;-77
2023/10/10 03:34:57;;;;;;;;;;;;;;;20.66;29.75;98020.06;4960796;28;1076;-77
2023/10/10 05:24:00;;;;;;;;;;;;;;;20.72;29.52;98114.44;5023874;28;1470;-75
2023/10/10 05:26:30;;;;;;;;;;;;;;;20.63;29.66;98119.91;5037806;28;1287;-76
2023/10/10 05:28:57;;;;;;;;;;;;;;;20.80;29.83;98123.59;5055516;28;1579;-75
2023/10/10 05:31:23;;;;;;;;;;;;;;;20.63;29.83;98116.28;5021560;28;1276;-75
2023/10/10 05:33:50;;;;;;;;;;;;;;;20.76;29.73;98115.16;5037389;28;1308;-75
2023/10/10 05:36:18;;;;;;;;;;;;;;;20.96;29.36;98117.19;5004858;28;1982;-75
2023/10/10 05:38:45;;;;;;;;;;;;;;;20.93;29.23;98123.69;5037570;28;1280;-76
2023/10/10 05:41:11;;;;;;;;;;;;;;;20.78;29.64;98124.03;4977288;28;1380;-75
2023/10/10 05:43:37;;;;;;;;;;;;;;;20.75;29.46;98119.25;4977394;28;1683;-75
2023/10/10 05:46:03;;;;;;;;;;;;;;;21.13;29.02;98115.97;4993809;28;1369;-75
2023/10/10 05:48:31;;;;;;;;;;;;;;;20.61;30.00;98124.38;4977881;28;963;-75
2023/10/10 05:50:57;;;;;;;;;;;;;;;20.94;29.64;98130.97;4996245;28;960;-75
2023/10/10 05:53:24;;;;;;;;;;;;;;;20.73;29.88;98116.06;4997941;28;1086;-75
2023/10/10 05:55:53;;;;;;;;;;;;;;;20.95;29.67;98133.34;4981493;28;1910;-75
2023/10/10 05:58:18;;;;;;;;;;;;;;;21.01;29.28;98142.13;4997615;28;1150;-75
2023/10/10 06:00:44;;;;;;;;;;;;;;;20.64;29.85;98141.28;4981203;28;988;-76
2023/10/10 06:03:12;;;;;;;;;;;;;;;20.74;29.91;98145.13;5013613;28;1334;-74
2023/10/10 06:05:48;;;;;;;;;;;;;;;20.72;29.69;98154.03;5014094;28;1106;-75
2023/10/10 06:08:13;;;;;;;;;;;;;;;20.83;29.77;98155.84;4997327;28;1063;-75
2023/10/10 06:10:39;;;;;;;;;;;;;;;20.90;29.42;98164.97;4981148;28;923;-75
2023/10/10 06:13:06;;;;;;;;;;;;;;;20.89;29.69;98166.22;5014906;28;842;-76
2023/10/10 06:15:34;;;;;;;;;;;;;;;20.95;29.44;98163.69;5033255;28;1971;-75
2023/10/10 06:18:12;;;;;;;;;;;;;;;20.91;29.82;98168.59;5020459;28;900;-75
2023/10/10 06:20:41;;;;;;;;;;;;;;;20.90;29.83;98178.34;5020263;28;1092;-75
2023/10/10 06:23:07;;;;;;;;;;;;;;;20.87;30.04;98190.50;5003922;28;1123;-75
2023/10/10 06:25:33;;;;;;;;;;;;;;;21.06;29.69;98189.69;5036359;28;727;-76
2023/10/10 06:28:00;;;;;;;;;;;;;;;21.00;29.45;98182.97;5036071;28;1182;-75
2023/10/10 06:30:26;;;;;;;;;;;;;;;21.07;29.42;98174.31;5003710;28;1202;-76
2023/10/10 06:32:51;;;;;;;;;;;;;;;20.83;29.88;98186.94;5036324;28;1053;-75
2023/10/10 06:37:58;;;;;;;;;;;;;;;21.07;29.55;98185.63;5036207;28;997;-75
2023/10/10 06:40:28;;;;;;;;;;;;;;;21.11;29.39;98191.22;5036039;28;992;-75
2023/10/10 06:45:35;;;;;;;;;;;;;;;22.02;28.59;98198.00;5039956;28;1268;-77
2023/10/10 06:48:01;;;;;;;;;;;;;;;22.10;29.25;98200.25;5042177;28;880;-77
2023/10/10 06:50:31;;;;;;;;;;;;;;;21.43;30.14;98199.03;5042182;28;1151;-77
2023/10/10 06:53:00;;;;;;;;;;;;;;;21.02;30.40;98194.63;5000954;28;2107;-77
2023/10/10 06:55:36;;;;;;;;;;;;;;;21.12;30.13;98192.81;5001042;28;1906;-77
2023/10/10 06:58:02;;;;;;;;;;;;;;;21.00;30.12;98197.13;4985673;28;924;-77
2023/10/10 07:00:28;;;;;;;;;;;;;;;20.92;30.03;98190.00;4984707;28;1069;-77
2023/10/10 07:02:55;;;;;;;;;;;;;;;20.65;30.13;98182.47;4984192;28;1328;-78
2023/10/10 07:05:26;;;;;;;;;;;;;;;20.74;29.91;98184.72;5001498;28;1103;-78
2023/10/10 07:07:58;;;;;;;;;;;;;;;20.68;29.48;98189.28;4985225;28;904;-77
2023/10/10 07:10:33;;;;;;;;;;;;;;;20.71;29.35;98186.38;5002063;28;1016;-78
2023/10/10 07:12:59;;;;;;;;;;;;;;;20.55;29.80;98203.25;5000877;28;1236;-78
2023/10/10 07:15:25;;;;;;;;;;;;;;;20.62;29.28;98193.84;4984769;28;1898;-78
2023/10/10 07:18:04;;;;;;;;;;;;;;;20.89;28.44;98199.38;4964903;28;1246;-78
2023/10/10 07:23:20;;;;;;;;;;;;;;;20.61;28.64;98209.19;4977182;28;924;-78
2023/10/10 07:25:58;;;;;;;;;;;;;;;20.49;28.74;98205.00;4961884;28;1193;-77
2023/10/10 07:28:26;;;;;;;;;;;;;;;20.76;28.44;98216.19;4977493;28;928;-77
2023/10/10 07:30:52;;;;;;;;;;;;;;;20.80;27.88;98212.06;4962325;28;1124;-78
2023/10/10 07:33:22;;;;;;;;;;;;;;;20.79;27.98;98216.13;4977625;28;952;-77
2023/10/10 07:35:53;;;;;;;;;;;;;;;20.98;27.99;98222.19;5156533;22;4006;-75
2023/10/10 07:38:28;;;;;;;;;;;;;;;22.15;27.81;98227.28;5021538;28;927;-76
2023/10/10 07:40:54;;;;;;;;;;;;;;;21.83;28.65;98230.88;5020610;28;1434;-76
2023/10/10 07:43:20;;;;;;;;;;;;;;;21.05;29.93;98224.91;5004268;28;1127;-75
2023/10/10 07:45:46;;;;;;;;;;;;;;;20.81;29.84;98224.16;5020488;28;977;-74
2023/10/10 07:50:47;;;;;;;;;;;;;;;20.68;29.60;98218.34;5020558;28;958;-75
2023/10/10 07:53:13;;;;;;;;;;;;;;;20.71;29.45;98214.66;5021569;28;926;-75
2023/10/10 07:56:00;;;;;;;;;;;;;;;20.69;29.60;98217.13;5037728;28;1901;-75
2023/10/10 07:58:45;;;;;;;;;;;;;;;20.74;29.13;98224.31;5022892;28;916;-74
2023/10/10 08:01:16;;;;;;;;;;;;;;;20.66;28.90;98223.63;5020060;28;1108;-76
2023/10/10 08:03:44;;;;;;;;;;;;;;;20.83;28.88;98238.69;5021043;28;1119;-76
2023/10/10 08:06:10;;;;;;;;;;;;;;;20.83;28.35;98233.03;5019774;28;876;-75
2023/10/10 08:08:40;;;;;;;;;;;;;;;20.93;28.36;98242.50;5019984;28;891;-75
2023/10/10 08:11:06;;;;;;;;;;;;;;;20.35;29.45;98239.13;4995706;28;1259;-75
2023/10/10 08:13:32;;;;;;;;;;;;;;;20.44;28.93;98234.53;4994767;28;1414;-75
2023/10/10 08:16:02;;;;;;;;;;;;;;;20.63;28.77;98238.66;4995336;28;1907;-75
2023/10/10 08:21:25;;;;;;;;;;;;;;;20.70;28.17;98237.72;4975886;28;1226;-75
2023/10/10 08:23:57;;;;;;;;;;;;;;;20.57;28.30;98229.06;4975704;28;1325;-75
2023/10/10 08:26:28;;;;;;;;;;;;;;;20.70;28.03;98241.34;4975938;28;736;-74
2023/10/10 08:28:54;;;;;;;;;;;;;;;21.30;27.41;98245.00;4959168;28;918;-75
2023/10/10 08:31:22;;;;;;;;;;;;;;;21.51;27.55;98234.44;4959457;28;1106;-75
2023/10/10 08:33:48;;;;;;;;;;;;;;;21.56;27.71;98239.59;4975360;28;941;-75
2023/10/10 08:36:49;;;;;;;;;;;;;;;21.50;27.73;98242.16;4955907;29;1903;-75
2023/10/10 08:41:57;;;;;;;;;;;;;;;20.93;28.09;98225.53;4861901;29;1091;-75
2023/10/10 08:44:23;;;;;;;;;;;;;;;20.93;27.98;98222.69;4843174;29;989;-75
2023/10/10 08:46:49;;;;;;;;;;;;;;;20.91;28.02;98228.00;4843707;29;948;-75
2023/10/10 08:49:14;;;;;;;;;;;;;;;20.54;28.51;98232.75;4857988;29;1154;-75
2023/10/10 08:51:44;;;;;;;;;;;;;;;20.72;28.42;98244.50;4862126;29;938;-75
2023/10/10 08:54:10;;;;;;;;;;;;;;;20.74;28.05;98247.72;4843175;29;1194;-76
2023/10/10 08:56:37;;;;;;;;;;;;;;;20.67;28.08;98253.50;4849245;29;2019;-75
2023/10/10 08:59:06;;;;;;;;;;;;;;;20.67;28.55;98253.50;4861883;29;978;-74
2023/10/10 09:01:35;;;;;;;;;;;;;;;20.84;27.92;98267.75;4846515;29;1157;-75
2023/10/10 09:04:03;;;;;;;;;;;;;;;20.74;27.98;98261.88;4846584;29;1031;-75
2023/10/10 09:06:42;;;;;;;;;;;;;;;20.52;28.49;98280.44;4842804;29;988;-75
2023/10/10 09:09:32;;;;;;;;;;;;;;;20.69;27.88;98268.03;4844770;29;977;-75
2023/10/10 09:11:53;;;;;;;;;;;;;;;20.52;28.09;98272.78;4861519;29;1010;-75
2023/10/10 09:14:19;;;;;;;;;;;;;;;20.81;27.92;98281.50;4864217;29;1015;-76
2023/10/10 09:16:44;;;;;;;;;;;;;;;21.29;27.10;98277.31;4898680;29;1973;-75
2023/10/10 09:19:10;;;;;;;;;;;;;;;21.38;27.00;98278.81;4953303;28;1584;-75
2023/10/10 09:21:44;;;;;;;;;;;;;;;21.47;27.28;98287.50;4962327;28;1234;-75
2023/10/10 09:24:27;;;;;;;;;;;;;;;20.87;28.24;98278.19;4982946;28;994;-75
2023/10/10 09:26:56;;;;;;;;;;;;;;;20.96;27.80;98281.25;5006324;28;1523;-75
2023/10/10 09:29:34;;;;;;;;;;;;;;;21.11;27.53;98281.75;4990285;28;1086;-75
2023/10/10 09:32:05;;;;;;;;;;;;;;;20.77;28.02;98279.97;5006814;28;1535;-76
2023/10/10 09:34:40;;;;;;;;;;;;;;;20.68;28.27;98283.41;5006459;28;930;-75
2023/10/10 09:37:07;;;;;;;;;;;;;;;20.54;28.26;98283.66;5023887;28;1997;-76
2023/10/10 09:39:40;;;;;;;;;;;;;;;20.55;28.20;98279.59;5022057;28;821;-76
2023/10/10 09:42:22;;;;;;;;;;;;;;;20.62;28.00;98273.78;5006770;28;1193;-75
2023/10/10 09:47:55;;;;;;;;;;;;;;;20.63;28.24;98272.59;5007491;28;1263;-76
2023/10/10 09:52:53;;;;;;;;;;;;;;;21.45;27.16;98259.66;5005613;28;1080;-76
2023/10/10 10:00:45;;;;;;;;;;;;;;;20.95;27.93;98255.00;5021859;28;992;-76
2023/10/10 10:05:58;;;;;;;;;;;;;;;20.53;28.21;98270.75;5023923;28;747;-76
2023/10/10 10:08:37;;;;;;;;;;;;;;;20.57;28.30;98259.34;5039500;28;707;-76
2023/10/10 10:11:10;;;;;;;;;;;;;;;20.48;28.40;98262.75;5023351;28;1146;-75
2023/10/10 10:13:48;;;;;;;;;;;;;;;20.59;28.15;98263.34;5005844;28;804;-76
2023/10/10 10:16:37;;;;;;;;;;;;;;;20.70;28.33;98263.94;5020837;28;1967;-76
2023/10/10 10:19:27;;;;;;;;;;;;;;;20.21;28.81;98268.41;5005400;28;1187;-75
2023/10/10 10:22:07;;;;;;;;;;;;;;;20.42;28.46;98272.94;5024401;28;1372;-75
2023/10/10 10:24:33;;;;;;;;;;;;;;;20.50;28.36;98271.59;5037460;28;1037;-75
2023/10/10 10:27:31;;;;;;;;;;;;;;;20.81;28.22;98270.19;5005039;28;1195;-76
2023/10/10 10:30:08;;;;;;;;;;;;;;;21.51;26.99;98274.09;4938987;29;926;-76
2023/10/10 10:32:35;;;;;;;;;;;;;;;21.32;27.29;98270.03;4939427;29;882;-76
2023/10/10 10:35:01;;;;;;;;;;;;;;;20.98;27.79;98281.59;4939196;29;1098;-76
2023/10/10 10:37:28;;;;;;;;;;;;;;;21.00;28.09;98274.28;4922532;29;1914;-76
2023/10/10 10:42:37;;;;;;;;;;;;;;;20.96;27.75;98269.94;4939300;29;787;-76
2023/10/10 10:45:34;;;;;;;;;;;;;;;20.90;27.92;98277.31;4907534;29;1085;-76
2023/10/10 10:47:59;;;;;;;;;;;;;;;20.46;28.55;98277.31;4900972;29;935;-77
2023/10/10 10:50:28;;;;;;;;;;;;;;;20.54;28.38;98266.69;4885390;29;928;-76
2023/10/10 10:52:57;;;;;;;;;;;;;;;20.71;28.13;98271.19;4900861;29;1021;-76
2023/10/10 10:55:27;;;;;;;;;;;;;;;20.61;28.50;98260.09;4901278;29;776;-75
2023/10/10 10:58:05;;;;;;;;;;;;;;;20.72;28.05;98261.47;4885405;29;894;-76
2023/10/10 11:03:51;;;;;;;;;;;;;;;21.38;27.05;98261.81;4901030;29;796;-76
2023/10/10 11:06:20;;;;;;;;;;;;;;;21.40;26.99;98265.00;4882864;29;1082;-75
2023/10/10 11:11:24;;;;;;;;;;;;;;;20.89;28.06;98281.41;4885641;29;901;-76
2023/10/10 11:13:54;;;;;;;;;;;;;;;20.83;27.88;98283.09;4886192;29;864;-75
2023/10/10 11:16:23;;;;;;;;;;;;;;;20.63;28.17;98283.09;4863105;29;1978;-76
2023/10/10 11:18:57;;;;;;;;;;;;;;;21.00;27.60;98273.50;4847720;29;980;-75
2023/10/10 11:21:27;;;;;;;;;;;;;;;20.70;28.29;98275.25;4863148;29;883;-76
2023/10/10 11:23:57;;;;;;;;;;;;;;;20.64;28.26;98282.66;4875631;29;1088;-75
2023/10/10 11:26:23;;;;;;;;;;;;;;;20.28;28.72;98277.59;4938292;29;819;-76
2023/10/10 11:28:48;;;;;;;;;;;;;;;20.60;28.40;98279.09;4938325;29;715;-75
2023/10/10 11:31:16;;;;;;;;;;;;;;;20.65;28.08;98272.94;4938628;29;891;-76
2023/10/10 11:33:56;;;;;;;;;;;;;;;20.72;27.92;98284.09;4938478;29;743;-75
2023/10/10 11:36:29;;;;;;;;;;;;;;;20.45;28.34;98289.00;4921876;29;1903;-76
2023/10/10 11:39:16;;;;;;;;;;;;;;;20.68;28.00;98277.75;4937880;29;836;-75
2023/10/10 11:41:41;;;;;;;;;;;;;;;20.78;27.92;98285.22;4918905;29;1517;-75
2023/10/10 11:44:07;;;;;;;;;;;;;;;20.52;28.24;98271.94;4938894;28;964;-76
2023/10/10 11:46:33;;;;;;;;;;;;;;;20.56;28.14;98281.16;4944673;28;1137;-76
2023/10/10 11:49:00;;;;;;;;;;;;;;;20.69;27.78;98273.66;4960214;28;782;-76
2023/10/10 11:51:35;;;;;;;;;;;;;;;21.20;27.42;98288.44;4960267;28;778;-76
2023/10/10 11:54:00;;;;;;;;;;;;;;;21.46;26.83;98274.59;4905899;29;1532;-76
2023/10/10 11:56:26;;;;;;;;;;;;;;;21.10;27.64;98286.63;4922824;29;1981;-76
2023/10/10 11:58:52;;;;;;;;;;;;;;;20.66;28.34;98279.38;4902804;29;788;-75
2023/10/10 12:01:47;;;;;;;;;;;;;;;20.61;28.29;98282.72;4902925;29;987;-75
2023/10/10 12:04:20;;;;;;;;;;;;;;;20.56;28.25;98292.47;4905834;29;981;-76
2023/10/10 12:06:46;;;;;;;;;;;;;;;20.89;27.88;98287.06;4912732;29;1388;-75
2023/10/10 12:09:18;;;;;;;;;;;;;;;20.67;27.88;98292.28;4921675;29;1504;-75
2023/10/10 12:11:44;;;;;;;;;;;;;;;20.70;28.19;98292.22;4923890;29;1122;-76
2023/10/10 12:14:12;;;;;;;;;;;;;;;20.48;28.23;98305.16;4925078;29;1428;-76
2023/10/10 12:16:37;;;;;;;;;;;;;;;21.05;27.71;98295.63;4927395;28;1981;-76
2023/10/10 12:19:05;;;;;;;;;;;;;;;20.81;27.64;98295.66;4959752;28;1312;-76
2023/10/10 12:21:31;;;;;;;;;;;;;;;20.71;27.88;98299.47;4959998;28;1133;-75
2023/10/10 12:23:57;;;;;;;;;;;;;;;20.68;28.11;98294.69;4948041;28;778;-76
2023/10/10 12:26:23;;;;;;;;;;;;;;;20.56;28.29;98292.47;5019355;28;878;-76
2023/10/10 12:28:52;;;;;;;;;;;;;;;20.58;27.96;98298.53;5037077;28;755;-76
2023/10/10 12:31:18;;;;;;;;;;;;;;;20.46;28.24;98299.09;5019768;28;802;-76
2023/10/10 12:33:47;;;;;;;;;;;;;;;21.17;27.26;98292.13;5019419;28;814;-76
2023/10/10 12:36:13;;;;;;;;;;;;;;;21.40;26.81;98298.97;5036366;28;1902;-76
2023/10/10 12:38:39;;;;;;;;;;;;;;;21.31;27.06;98297.53;5018758;28;750;-76
2023/10/10 12:41:13;;;;;;;;;;;;;;;20.95;27.55;98299.44;5019269;28;755;-75
2023/10/10 12:43:39;;;;;;;;;;;;;;;20.78;28.04;98304.22;4997987;28;936;-76
2023/10/10 12:46:07;;;;;;;;;;;;;;;20.38;28.41;98311.75;4998072;28;1019;-76
2023/10/10 12:48:39;;;;;;;;;;;;;;;20.59;28.34;98302.94;5014757;28;990;-75
2023/10/10 12:51:09;;;;;;;;;;;;;;;20.65;28.00;98308.91;4999229;28;1020;-75
2023/10/10 12:53:39;;;;;;;;;;;;;;;20.67;28.08;98298.75;4982518;28;1366;-76
2023/10/10 12:56:05;;;;;;;;;;;;;;;20.91;27.81;98304.38;4982036;28;1906;-76
2023/10/10 12:58:31;;;;;;;;;;;;;;;20.79;28.16;98305.81;4981601;28;958;-76
2023/10/10 13:00:58;;;;;;;;;;;;;;;20.61;28.05;98303.28;4997640;28;1293;-76
2023/10/10 13:03:30;;;;;;;;;;;;;;;20.54;28.19;98306.25;4997818;28;1322;-75
2023/10/10 13:05:59;;;;;;;;;;;;;;;20.80;27.60;98296.88;5011935;28;1467;-76
2023/10/10 13:08:25;;;;;;;;;;;;;;;21.00;27.61;98310.28;4974730;28;1402;-76
2023/10/10 13:11:02;;;;;;;;;;;;;;;21.27;27.13;98305.28;4958749;28;1420;-74
2023/10/10 13:13:31;;;;;;;;;;;;;;;21.40;26.78;98305.47;4976739;28;1201;-74
2023/10/10 13:16:07;;;;;;;;;;;;;;;21.23;27.37;98298.88;4994639;28;1914;-74
2023/10/10 13:18:35;;;;;;;;;;;;;;;20.79;27.64;98303.00;4994454;28;1200;-74
2023/10/10 13:21:01;;;;;;;;;;;;;;;20.71;28.08;98316.44;4978691;28;1014;-75
2023/10/10 13:23:26;;;;;;;;;;;;;;;20.58;28.23;98301.34;4974976;28;1181;-75
2023/10/10 13:25:52;;;;;;;;;;;;;;;20.47;28.52;98300.75;4959101;28;1156;-75
2023/10/10 13:28:17;;;;;;;;;;;;;;;20.47;28.21;98306.41;4974624;28;1345;-75
2023/10/10 13:30:49;;;;;;;;;;;;;;;20.67;28.25;98310.03;4974741;28;1374;-75
2023/10/10 13:33:14;;;;;;;;;;;;;;;20.65;28.05;98306.88;4974418;28;1518;-75
2023/10/10 13:35:40;;;;;;;;;;;;;;;20.46;28.34;98307.56;4966438;28;1903;-74
2023/10/10 13:38:06;;;;;;;;;;;;;;;20.56;27.91;98315.09;4962131;28;1338;-76
2023/10/10 13:40:40;;;;;;;;;;;;;;;20.40;28.51;98306.47;4974107;28;1574;-76
2023/10/10 13:43:08;;;;;;;;;;;;;;;20.30;28.25;98306.22;4946030;29;1310;-76
2023/10/10 13:45:35;;;;;;;;;;;;;;;20.96;27.75;98310.31;4930963;28;1384;-75
2023/10/10 13:48:01;;;;;;;;;;;;;;;21.33;27.05;98306.38;4974320;28;1539;-74
2023/10/10 13:50:31;;;;;;;;;;;;;;;21.23;27.29;98304.53;4942279;28;1432;-76
2023/10/10 13:52:59;;;;;;;;;;;;;;;21.21;27.09;98309.84;4974365;28;1449;-77
2023/10/10 13:55:29;;;;;;;;;;;;;;;21.13;27.32;98316.88;4958588;28;1567;-77
2023/10/10 13:57:55;;;;;;;;;;;;;;;21.05;27.39;98312.59;4942925;28;1911;-76
2023/10/10 14:00:33;;;;;;;;;;;;;;;20.73;27.80;98325.31;4992594;28;1538;-76
2023/10/10 14:03:04;;;;;;;;;;;;;;;20.58;28.19;98315.47;4955164;29;1235;-76
2023/10/10 14:05:36;;;;;;;;;;;;;;;20.41;28.44;98325.00;4939891;29;1139;-76
2023/10/10 14:08:17;;;;;;;;;;;;;;;20.69;27.77;98333.06;4939404;29;1012;-76
2023/10/10 14:10:43;;;;;;;;;;;;;;;20.80;27.54;98330.81;4955325;28;970;-75
2023/10/10 14:13:20;;;;;;;;;;;;;;;20.65;27.62;98337.97;4945951;28;1313;-76
2023/10/10 14:15:56;;;;;;;;;;;;;;;20.36;28.11;98340.44;4978373;28;1906;-75
2023/10/10 14:18:25;;;;;;;;;;;;;;;20.54;27.81;98340.97;4977977;28;995;-76
2023/10/10 14:20:50;;;;;;;;;;;;;;;20.65;27.91;98346.44;4978116;28;846;-76
2023/10/10 14:23:19;;;;;;;;;;;;;;;21.04;27.11;98350.63;4978355;28;1164;-75
2023/10/10 14:25:47;;;;;;;;;;;;;;;21.02;27.43;98350.22;4977955;28;1245;-75
2023/10/10 14:28:16;;;;;;;;;;;;;;;21.37;26.82;98350.81;4938968;29;1017;-76
2023/10/10 14:30:44;;;;;;;;;;;;;;;21.06;27.08;98365.91;4939624;29;1443;-76
2023/10/10 14:33:10;;;;;;;;;;;;;;;20.83;27.59;98362.28;4949701;28;1012;-75
2023/10/10 14:35:36;;;;;;;;;;;;;;;20.84;27.69;98363.91;4964962;28;1981;-76
2023/10/10 14:38:02;;;;;;;;;;;;;;;20.57;27.83;98370.41;4997714;28;1028;-75
2023/10/10 14:40:28;;;;;;;;;;;;;;;20.78;27.50;98375.72;4964957;28;934;-76
2023/10/10 14:42:53;;;;;;;;;;;;;;;20.90;27.28;98376.31;4981041;28;939;-76
2023/10/10 14:45:24;;;;;;;;;;;;;;;20.85;27.37;98376.81;4981096;28;993;-76
2023/10/10 14:47:51;;;;;;;;;;;;;;;20.76;27.39;98381.00;4981603;28;965;-76
2023/10/10 14:50:23;;;;;;;;;;;;;;;20.72;27.46;98380.25;4997299;28;981;-76
2023/10/10 14:52:51;;;;;;;;;;;;;;;20.50;27.84;98391.13;4965323;28;1194;-76
2023/10/10 14:55:27;;;;;;;;;;;;;;;20.43;27.79;98391.22;4980914;28;1259;-76
2023/10/10 14:57:56;;;;;;;;;;;;;;;20.34;28.14;98405.06;4965849;28;1926;-76
2023/10/10 15:00:22;;;;;;;;;;;;;;;21.13;26.73;98404.59;4964853;28;1179;-76
2023/10/10 15:02:52;;;;;;;;;;;;;;;21.38;26.55;98397.69;4980594;28;952;-75
2023/10/10 15:05:18;;;;;;;;;;;;;;;21.41;26.41;98408.16;5012969;28;877;-76
2023/10/10 15:07:45;;;;;;;;;;;;;;;21.37;26.42;98418.75;5004346;28;1293;-75
2023/10/10 15:10:11;;;;;;;;;;;;;;;21.17;26.65;98422.31;5020953;28;856;-75
2023/10/10 15:12:36;;;;;;;;;;;;;;;20.70;27.61;98415.84;5004230;28;948;-75
2023/10/10 15:15:02;;;;;;;;;;;;;;;20.63;27.70;98421.63;5005032;28;955;-75
2023/10/10 15:17:28;;;;;;;;;;;;;;;20.66;27.36;98424.38;4996574;28;1985;-75
2023/10/10 15:19:53;;;;;;;;;;;;;;;20.55;27.59;98426.59;4964436;28;990;-76
2023/10/10 15:22:19;;;;;;;;;;;;;;;20.59;27.44;98427.34;4979847;28;1076;-76
2023/10/10 15:24:49;;;;;;;;;;;;;;;20.58;27.41;98437.06;4964244;28;978;-76
2023/10/10 15:27:15;;;;;;;;;;;;;;;20.65;27.60;98434.09;4964603;28;936;-77
2023/10/10 15:29:42;;;;;;;;;;;;;;;20.71;27.10;98435.22;4963966;28;1057;-75
2023/10/10 15:32:08;;;;;;;;;;;;;;;20.53;27.82;98441.16;4996601;28;922;-76
2023/10/10 15:34:34;;;;;;;;;;;;;;;21.16;26.60;98443.34;4957497;29;1063;-75
2023/10/10 15:37:00;;;;;;;;;;;;;;;21.31;26.42;98450.38;4957363;29;1973;-76
2023/10/10 15:39:25;;;;;;;;;;;;;;;21.22;26.47;98444.44;4957004;29;984;-75
2023/10/10 15:41:51;;;;;;;;;;;;;;;20.62;27.52;98457.56;4957105;29;923;-76
2023/10/10 15:44:16;;;;;;;;;;;;;;;20.37;28.22;98465.59;4941431;29;1104;-76
2023/10/10 15:46:43;;;;;;;;;;;;;;;20.57;27.61;98469.34;4957404;29;995;-75
2023/10/10 15:49:09;;;;;;;;;;;;;;;20.51;27.70;98465.41;4971625;28;1132;-75
2023/10/10 15:51:38;;;;;;;;;;;;;;;20.79;27.63;98464.19;4996036;28;1006;-76
2023/10/10 15:54:14;;;;;;;;;;;;;;;20.59;27.79;98475.41;4980370;28;905;-75
2023/10/10 15:56:40;;;;;;;;;;;;;;;20.44;27.94;98477.59;4979800;28;1989;-75
2023/10/10 15:59:05;;;;;;;;;;;;;;;20.37;28.07;98488.22;4963717;28;1174;-75